createdAt,value
2022-10-19T00:00:31.433Z,100.00
2022-10-19T00:02:57.965Z,100.00
2022-10-19T00:05:24.506Z,100.00
2022-10-19T00:07:51.041Z,100.00
2022-10-19T00:10:17.586Z,100.00
2022-10-19T00:12:44.167Z,100.00
2022-10-19T00:15:12.177Z,100.00
2022-10-19T00:17:38.719Z,100.00
2022-10-19T00:20:06.052Z,100.00
2022-10-19T00:22:33.000Z,100.00
2022-10-19T00:24:59.788Z,100.00
2022-10-19T00:27:26.365Z,100.00
2022-10-19T00:29:52.932Z,100.00
2022-10-19T00:32:20.842Z,100.00
2022-10-19T00:34:47.412Z,100.00
2022-10-19T00:37:14.091Z,100.00
2022-10-19T00:39:40.783Z,100.00
2022-10-19T00:42:10.445Z,100.00
2022-10-19T00:45:05.117Z,100.00
2022-10-19T00:47:34.051Z,100.00
2022-10-19T00:50:00.618Z,100.00
2022-10-19T00:52:28.801Z,100.00
2022-10-19T00:54:57.838Z,100.00
2022-10-19T00:57:28.172Z,100.00
2022-10-19T00:59:55.489Z,100.00
2022-10-19T01:02:22.017Z,100.00
2022-10-19T01:04:52.300Z,100.00
2022-10-19T01:07:19.870Z,100.00
2022-10-19T01:09:46.436Z,100.00
2022-10-19T01:12:25.477Z,100.00
2022-10-19T01:15:06.221Z,100.00
2022-10-19T01:17:44.476Z,100.00
2022-10-19T01:20:42.355Z,100.00
2022-10-19T01:23:37.493Z,100.00
2022-10-19T01:26:16.887Z,100.00
2022-10-19T01:28:54.877Z,100.00
2022-10-19T01:31:29.903Z,100.00
2022-10-19T01:34:03.439Z,100.00
2022-10-19T01:36:40.782Z,100.00
2022-10-19T01:39:11.731Z,100.00
2022-10-19T01:41:47.145Z,100.00
2022-10-19T01:44:18.769Z,100.00
2022-10-19T01:46:51.294Z,100.00
2022-10-19T01:49:25.176Z,100.00
2022-10-19T01:54:34.964Z,100.00
2022-10-19T01:57:04.285Z,100.00
2022-10-19T01:59:33.627Z,100.00
2022-10-19T02:02:03.496Z,100.00
2022-10-19T02:04:31.785Z,100.00
2022-10-19T02:06:59.194Z,100.00
2022-10-19T02:09:25.774Z,100.00
2022-10-19T02:11:57.237Z,100.00
2022-10-19T02:14:27.554Z,100.00
2022-10-19T02:16:59.256Z,100.00
2022-10-19T02:19:27.155Z,100.00
2022-10-19T02:21:54.086Z,100.00
2022-10-19T02:24:20.618Z,100.00
2022-10-19T02:26:47.253Z,100.00
2022-10-19T02:29:15.223Z,100.00
2022-10-19T02:31:42.143Z,100.00
2022-10-19T02:34:09.963Z,100.00
2022-10-19T02:36:38.057Z,100.00
2022-10-19T02:39:06.593Z,100.00
2022-10-19T02:41:38.083Z,100.00
2022-10-19T02:44:10.083Z,100.00
2022-10-19T02:49:09.295Z,100.00
2022-10-19T02:51:38.735Z,100.00
2022-10-19T02:54:07.749Z,99.85
2022-10-19T02:56:35.227Z,99.47
2022-10-19T02:59:01.875Z,99.46
2022-10-19T03:01:28.518Z,99.99
2022-10-19T03:03:55.056Z,99.93
2022-10-19T03:06:21.610Z,100.00
2022-10-19T03:08:49.563Z,100.00
2022-10-19T03:11:16.098Z,100.00
2022-10-19T03:13:42.662Z,100.00
2022-10-19T03:16:11.021Z,100.00
2022-10-19T03:18:37.722Z,100.00
2022-10-19T03:21:06.361Z,100.00
2022-10-19T03:23:33.109Z,100.00
2022-10-19T03:26:01.091Z,100.00
2022-10-19T03:28:27.701Z,100.00
2022-10-19T03:30:54.301Z,100.00
2022-10-19T03:33:20.910Z,100.00
2022-10-19T03:35:47.499Z,100.00
2022-10-19T03:38:14.270Z,100.00
2022-10-19T03:40:40.846Z,100.00
2022-10-19T03:43:08.851Z,100.00
2022-10-19T03:45:35.381Z,100.00
2022-10-19T03:48:01.947Z,100.00
2022-10-19T03:50:28.520Z,100.00
2022-10-19T03:52:55.601Z,100.00
2022-10-19T03:55:22.205Z,100.00
2022-10-19T03:57:48.759Z,100.00
2022-10-19T04:00:16.997Z,100.00
2022-10-19T04:02:43.621Z,100.00
2022-10-19T04:05:10.218Z,100.00
2022-10-19T04:07:36.793Z,100.00
2022-10-19T04:10:03.841Z,100.00
2022-10-19T04:12:30.432Z,100.00
2022-10-19T04:14:57.847Z,100.00
2022-10-19T04:17:26.308Z,100.00
2022-10-19T04:19:52.843Z,100.00
2022-10-19T04:22:19.420Z,100.00
2022-10-19T04:24:45.950Z,100.00
2022-10-19T04:27:12.528Z,100.00
2022-10-19T04:29:39.087Z,100.00
2022-10-19T04:32:06.123Z,100.00
2022-10-19T04:34:36.357Z,100.00
2022-10-19T04:37:05.892Z,100.00
2022-10-19T04:39:32.432Z,100.00
2022-10-19T04:41:59.011Z,100.00
2022-10-19T04:44:25.556Z,100.00
2022-10-19T04:46:52.288Z,100.00
2022-10-19T04:49:20.245Z,100.00
2022-10-19T04:51:48.275Z,100.00
2022-10-19T04:54:14.942Z,100.00
2022-10-19T04:56:41.677Z,100.00
2022-10-19T04:59:09.634Z,100.00
2022-10-19T05:01:36.304Z,100.00
2022-10-19T05:04:03.307Z,100.00
2022-10-19T05:06:31.083Z,99.70
2022-10-19T05:08:59.727Z,99.86
2022-10-19T05:11:26.548Z,99.85
2022-10-19T05:13:53.093Z,100.00
2022-10-19T05:16:21.270Z,100.00
2022-10-19T05:18:48.841Z,100.00
2022-10-19T05:21:16.001Z,100.00
2022-10-19T05:23:42.583Z,100.00
2022-10-19T05:26:12.400Z,100.00
2022-10-19T05:28:39.329Z,100.00
2022-10-19T05:31:08.681Z,100.00
2022-10-19T05:33:35.686Z,100.00
2022-10-19T05:36:14.069Z,100.00
2022-10-19T05:38:40.788Z,100.00
2022-10-19T05:41:07.366Z,100.00
2022-10-19T05:43:35.376Z,100.00
2022-10-19T05:46:06.824Z,100.00
2022-10-19T05:48:34.330Z,100.00
2022-10-19T05:51:00.983Z,100.00
2022-10-19T05:53:27.855Z,100.00
2022-10-19T05:55:54.698Z,100.00
2022-10-19T05:58:21.535Z,100.00
2022-10-19T06:00:53.484Z,100.00
2022-10-19T06:03:20.257Z,100.00
2022-10-19T06:05:46.824Z,100.00
2022-10-19T06:08:13.434Z,99.81
2022-10-19T06:10:39.986Z,100.00
2022-10-19T06:13:06.604Z,99.24
2022-10-19T06:15:33.827Z,99.09
2022-10-19T06:18:03.729Z,98.84
2022-10-19T06:20:30.451Z,99.86
2022-10-19T06:22:57.018Z,99.68
2022-10-19T06:25:23.552Z,99.58
2022-10-19T06:27:50.169Z,99.29
2022-10-19T06:30:17.013Z,99.01
2022-10-19T06:32:43.611Z,98.61
2022-10-19T06:35:11.667Z,98.08
2022-10-19T06:37:38.245Z,98.22
2022-10-19T06:40:07.256Z,97.88
2022-10-19T06:42:34.186Z,97.89
2022-10-19T06:45:00.751Z,96.92
2022-10-19T06:47:27.307Z,96.79
2022-10-19T06:49:53.857Z,95.71
2022-10-19T06:52:21.782Z,95.88
2022-10-19T06:54:48.355Z,95.05
2022-10-19T06:57:14.939Z,94.73
2022-10-19T06:59:41.523Z,93.55
2022-10-19T07:02:10.083Z,94.66
2022-10-19T07:04:36.626Z,94.44
2022-10-19T07:07:03.280Z,94.91
2022-10-19T07:09:31.239Z,95.19
2022-10-19T07:11:57.790Z,94.64
2022-10-19T07:14:24.401Z,94.73
2022-10-19T07:16:51.280Z,93.76
2022-10-19T07:19:17.877Z,95.51
2022-10-19T07:21:44.444Z,95.58
2022-10-19T07:24:11.277Z,95.46
2022-10-19T07:26:39.222Z,94.51
2022-10-19T07:29:05.780Z,94.60
2022-10-19T07:31:32.629Z,94.54
2022-10-19T07:34:01.174Z,93.29
2022-10-19T07:36:29.398Z,93.35
2022-10-19T07:38:55.995Z,92.90
2022-10-19T07:41:24.484Z,92.30
2022-10-19T07:43:53.487Z,92.18
2022-10-19T07:46:22.454Z,94.66
2022-10-19T07:48:49.792Z,94.42
2022-10-19T07:51:17.581Z,94.16
2022-10-19T07:53:44.417Z,94.03
2022-10-19T07:56:12.475Z,93.95
2022-10-19T07:58:39.814Z,93.39
2022-10-19T08:01:09.791Z,93.04
2022-10-19T08:06:23.400Z,91.87
2022-10-19T08:08:52.565Z,92.04
2022-10-19T08:11:21.568Z,91.81
2022-10-19T08:13:48.608Z,91.63
2022-10-19T08:16:25.489Z,91.05
2022-10-19T08:18:53.114Z,92.92
2022-10-19T08:21:19.663Z,92.28
2022-10-19T08:23:46.225Z,92.17
2022-10-19T08:26:12.852Z,91.34
2022-10-19T08:28:39.431Z,91.02
2022-10-19T08:31:13.661Z,91.60
2022-10-19T08:33:41.835Z,91.55
2022-10-19T08:36:10.022Z,93.42
2022-10-19T08:38:37.662Z,93.02
2022-10-19T08:41:11.785Z,93.07
2022-10-19T08:43:48.292Z,91.29
2022-10-19T08:46:22.813Z,88.87
2022-10-19T08:48:52.051Z,88.01
2022-10-19T08:51:18.679Z,86.84
2022-10-19T08:53:52.729Z,85.42
2022-10-19T08:56:49.208Z,86.13
2022-10-19T08:59:21.624Z,85.51
2022-10-19T09:01:54.556Z,86.60
2022-10-19T09:04:26.533Z,86.42
2022-10-19T09:07:03.710Z,85.46
2022-10-19T09:09:31.602Z,86.07
2022-10-19T09:12:03.337Z,86.15
2022-10-19T09:14:32.985Z,85.52
2022-10-19T09:17:02.669Z,84.04
2022-10-19T09:19:30.956Z,83.93
2022-10-19T09:22:00.610Z,85.38
2022-10-19T09:24:29.787Z,82.92
2022-10-19T09:26:58.886Z,82.69
2022-10-19T09:29:32.837Z,82.08
2022-10-19T09:32:01.577Z,81.97
2022-10-19T09:34:33.764Z,81.32
2022-10-19T09:37:00.786Z,80.55
2022-10-19T09:39:29.705Z,79.81
2022-10-19T09:41:58.028Z,80.82
2022-10-19T09:44:25.607Z,79.78
2022-10-19T09:46:55.331Z,80.30
2022-10-19T09:49:39.570Z,81.59
2022-10-19T09:52:06.165Z,84.23
2022-10-19T09:54:35.935Z,84.86
2022-10-19T09:57:03.998Z,83.41
2022-10-19T09:59:35.816Z,81.56
2022-10-19T10:02:16.490Z,80.40
2022-10-19T10:04:54.452Z,78.79
2022-10-19T10:07:34.208Z,77.40
2022-10-19T10:10:01.076Z,79.22
2022-10-19T10:12:27.775Z,78.91
2022-10-19T10:14:54.596Z,78.07
2022-10-19T10:17:24.488Z,78.20
2022-10-19T10:20:17.821Z,77.76
2022-10-19T10:22:52.533Z,78.36
2022-10-19T10:25:19.238Z,79.08
2022-10-19T10:27:55.800Z,79.88
2022-10-19T10:30:22.497Z,80.11
2022-10-19T10:32:51.163Z,80.20
2022-10-19T10:35:23.406Z,79.90
2022-10-19T10:37:50.297Z,81.19
2022-10-19T10:40:23.810Z,82.64
2022-10-19T10:42:52.451Z,82.35
2022-10-19T10:45:23.600Z,83.08
2022-10-19T10:47:50.513Z,81.79
2022-10-19T10:50:22.334Z,79.67
2022-10-19T10:52:58.983Z,79.06
2022-10-19T10:55:25.898Z,79.00
2022-10-19T10:58:02.310Z,79.67
2022-10-19T11:00:29.419Z,79.35
2022-10-19T11:03:01.541Z,81.17
2022-10-19T11:05:33.375Z,81.51
2022-10-19T11:08:03.100Z,81.95
2022-10-19T11:10:33.251Z,81.12
2022-10-19T11:13:08.699Z,82.05
2022-10-19T11:15:40.828Z,80.99
2022-10-19T11:18:16.693Z,80.18
2022-10-19T11:20:53.297Z,80.08
2022-10-19T11:23:33.603Z,79.71
2022-10-19T11:26:12.384Z,79.25
2022-10-19T11:28:54.447Z,78.68
2022-10-19T11:31:22.263Z,79.21
2022-10-19T11:33:59.253Z,77.53
2022-10-19T11:36:46.182Z,76.48
2022-10-19T11:39:28.262Z,76.20
2022-10-19T11:41:59.401Z,76.92
2022-10-19T11:44:38.784Z,76.07
2022-10-19T11:47:19.410Z,75.05
2022-10-19T11:49:59.498Z,74.72
2022-10-19T11:52:38.795Z,75.02
2022-10-19T11:55:16.105Z,75.19
2022-10-19T11:57:51.473Z,75.09
2022-10-19T12:00:40.043Z,74.69
2022-10-19T12:03:24.536Z,74.45
2022-10-19T12:06:08.371Z,74.67
2022-10-19T12:08:51.162Z,74.58
2022-10-19T12:11:29.054Z,74.49
2022-10-19T12:14:00.702Z,73.52
2022-10-19T12:16:37.847Z,74.31
2022-10-19T12:19:07.012Z,73.51
2022-10-19T12:21:36.428Z,72.90
2022-10-19T12:24:11.459Z,72.89
2022-10-19T12:26:39.936Z,70.55
2022-10-19T12:29:13.972Z,70.14
2022-10-19T12:31:41.153Z,71.69
2022-10-19T12:34:20.336Z,70.40
2022-10-19T12:36:52.459Z,71.02
2022-10-19T12:39:26.479Z,70.07
2022-10-19T12:41:59.945Z,70.20
2022-10-19T12:45:20.137Z,70.92
2022-10-19T12:48:19.051Z,68.47
2022-10-19T12:51:14.083Z,68.73
2022-10-19T12:53:44.291Z,69.59
2022-10-19T12:56:17.745Z,69.53
2022-10-19T12:58:52.485Z,68.84
2022-10-19T13:01:24.435Z,69.02
2022-10-19T13:04:05.579Z,70.18
2022-10-19T13:06:35.006Z,71.11
2022-10-19T13:09:04.771Z,70.39
2022-10-19T13:14:06.981Z,68.99
2022-10-19T13:16:58.009Z,69.32
2022-10-19T13:19:25.028Z,67.90
2022-10-19T13:22:00.092Z,69.42
2022-10-19T13:24:30.719Z,68.89
2022-10-19T13:27:37.464Z,70.67
2022-10-19T13:30:44.891Z,70.29
2022-10-19T13:33:44.075Z,70.15
2022-10-19T13:36:11.872Z,69.54
2022-10-19T13:38:39.665Z,69.60
2022-10-19T13:41:11.490Z,67.98
2022-10-19T13:43:39.472Z,68.03
2022-10-19T13:46:11.800Z,69.61
2022-10-19T13:48:59.235Z,68.39
2022-10-19T13:51:34.664Z,68.41
2022-10-19T13:54:13.840Z,68.18
2022-10-19T13:57:04.932Z,68.12
2022-10-19T14:00:11.801Z,68.39
2022-10-19T14:03:06.716Z,67.21
2022-10-19T14:05:56.439Z,67.67
2022-10-19T14:08:38.477Z,66.50
2022-10-19T14:11:05.823Z,66.76
2022-10-19T14:13:32.524Z,67.54
2022-10-19T14:16:00.380Z,67.39
2022-10-19T14:18:30.256Z,68.55
2022-10-19T14:20:58.164Z,68.02
2022-10-19T14:23:26.966Z,69.97
2022-10-19T14:25:55.672Z,69.20
2022-10-19T14:28:23.372Z,68.17
2022-10-19T14:30:56.262Z,67.81
2022-10-19T14:33:23.342Z,68.73
2022-10-19T14:35:52.836Z,68.26
2022-10-19T14:38:22.059Z,69.06
2022-10-19T14:40:48.660Z,68.42
2022-10-19T14:43:21.116Z,69.10
2022-10-19T14:46:03.529Z,68.68
2022-10-19T14:48:30.099Z,68.46
2022-10-19T14:50:58.206Z,69.17
2022-10-19T14:53:35.377Z,69.05
2022-10-19T14:56:07.813Z,69.09
2022-10-19T14:58:39.979Z,70.03
2022-10-19T15:01:07.398Z,69.19
2022-10-19T15:03:34.275Z,69.30
2022-10-19T15:06:05.723Z,69.47
2022-10-19T15:08:36.870Z,69.45
2022-10-19T15:11:05.937Z,69.98
2022-10-19T15:13:35.699Z,69.64
2022-10-19T15:16:02.298Z,70.02
2022-10-19T15:18:48.720Z,70.63
2022-10-19T15:21:19.660Z,71.05
2022-10-19T15:23:47.329Z,71.59
2022-10-19T15:26:18.409Z,71.89
2022-10-19T15:28:45.620Z,72.07
2022-10-19T15:31:18.763Z,72.20
2022-10-19T15:33:48.845Z,74.29
2022-10-19T15:36:17.740Z,75.52
2022-10-19T15:38:46.080Z,75.90
2022-10-19T15:41:18.232Z,76.55
2022-10-19T15:43:47.085Z,76.32
2022-10-19T15:46:25.850Z,76.75
2022-10-19T15:48:55.324Z,76.83
2022-10-19T15:51:44.076Z,76.69
2022-10-19T15:54:11.074Z,77.83
2022-10-19T15:56:39.404Z,78.25
2022-10-19T15:59:11.032Z,78.02
2022-10-19T16:01:37.789Z,79.02
2022-10-19T16:04:04.762Z,79.57
2022-10-19T16:06:33.846Z,80.70
2022-10-19T16:09:02.026Z,81.53
2022-10-19T16:11:29.801Z,82.61
2022-10-19T16:13:56.363Z,83.69
2022-10-19T16:16:25.196Z,84.16
2022-10-19T16:18:52.515Z,84.48
2022-10-19T16:21:21.018Z,85.03
2022-10-19T16:23:47.633Z,85.71
2022-10-19T16:26:16.963Z,85.67
2022-10-19T16:28:44.407Z,85.96
2022-10-19T16:31:11.672Z,86.69
2022-10-19T16:33:38.246Z,86.99
2022-10-19T16:36:05.766Z,88.01
2022-10-19T16:38:32.660Z,88.91
2022-10-19T16:41:00.480Z,89.10
2022-10-19T16:43:28.637Z,89.55
2022-10-19T16:45:55.200Z,88.30
2022-10-19T16:48:24.191Z,88.27
2022-10-19T16:51:18.975Z,88.60
2022-10-19T16:53:45.644Z,89.00
2022-10-19T16:56:13.388Z,89.86
2022-10-19T16:58:42.049Z,89.76
2022-10-19T17:01:09.025Z,89.70
2022-10-19T17:03:37.551Z,90.00
2022-10-19T17:06:04.787Z,90.06
2022-10-19T17:08:37.142Z,90.59
2022-10-19T17:11:12.897Z,90.73
2022-10-19T17:13:41.569Z,91.24
2022-10-19T17:16:09.520Z,91.27
2022-10-19T17:18:36.841Z,91.48
2022-10-19T17:21:05.887Z,91.01
2022-10-19T17:23:32.533Z,90.48
2022-10-19T17:25:59.075Z,89.86
2022-10-19T17:28:27.727Z,89.51
2022-10-19T17:30:55.956Z,89.43
2022-10-19T17:33:22.521Z,89.45
2022-10-19T17:35:49.063Z,89.46
2022-10-19T17:38:15.643Z,90.52
2022-10-19T17:40:42.196Z,90.59
2022-10-19T17:43:08.970Z,92.19
2022-10-19T17:45:35.565Z,92.45
2022-10-19T17:48:03.905Z,92.55
2022-10-19T17:50:30.652Z,92.25
2022-10-19T17:52:57.888Z,92.12
2022-10-19T17:55:24.465Z,91.71
2022-10-19T17:57:51.013Z,91.98
2022-10-19T18:00:17.713Z,92.34
2022-10-19T18:02:44.881Z,92.69
2022-10-19T18:05:13.027Z,92.35
2022-10-19T18:07:39.577Z,93.44
2022-10-19T18:10:06.361Z,93.26
2022-10-19T18:12:32.916Z,93.31
2022-10-19T18:14:59.450Z,92.44
2022-10-19T18:17:27.805Z,92.88
2022-10-19T18:19:54.600Z,93.24
2022-10-19T18:22:22.502Z,93.14
2022-10-19T18:24:49.049Z,93.42
2022-10-19T18:27:15.696Z,94.17
2022-10-19T18:29:42.253Z,93.56
2022-10-19T18:32:08.835Z,95.03
2022-10-19T18:34:35.405Z,96.01
2022-10-19T18:37:01.956Z,95.33
2022-10-19T18:39:29.856Z,94.28
2022-10-19T18:41:56.422Z,93.30
2022-10-19T18:44:26.554Z,92.12
2022-10-19T18:46:55.322Z,90.43
2022-10-19T18:49:21.872Z,89.35
2022-10-19T18:51:52.452Z,88.65
2022-10-19T18:54:21.888Z,87.49
2022-10-19T18:56:49.838Z,86.50
2022-10-19T18:59:16.431Z,85.74
2022-10-19T19:01:43.142Z,85.21
2022-10-19T19:04:10.232Z,84.91
2022-10-19T19:06:37.927Z,84.97
2022-10-19T19:09:07.429Z,84.48
2022-10-19T19:11:37.034Z,84.16
2022-10-19T19:14:07.468Z,83.87
2022-10-19T19:16:35.675Z,84.10
2022-10-19T19:19:02.504Z,83.45
2022-10-19T19:21:30.425Z,83.33
2022-10-19T19:23:59.689Z,83.06
2022-10-19T19:26:29.071Z,82.80
2022-10-19T19:28:55.680Z,82.60
2022-10-19T19:31:23.958Z,82.07
2022-10-19T19:33:50.606Z,82.14
2022-10-19T19:36:18.607Z,82.11
2022-10-19T19:38:45.819Z,81.96
2022-10-19T19:41:14.833Z,82.14
2022-10-19T19:43:42.049Z,81.81
2022-10-19T19:46:12.547Z,81.85
2022-10-19T19:48:42.730Z,81.93
2022-10-19T19:51:10.378Z,81.36
2022-10-19T19:53:37.980Z,81.31
2022-10-19T19:56:06.222Z,81.45
2022-10-19T19:58:32.776Z,82.02
2022-10-19T20:00:59.301Z,81.72
2022-10-19T20:03:25.879Z,81.99
2022-10-19T20:05:53.736Z,81.79
2022-10-19T20:08:20.280Z,82.01
2022-10-19T20:10:46.827Z,81.99
2022-10-19T20:13:13.397Z,81.88
2022-10-19T20:15:39.935Z,81.64
2022-10-19T20:18:06.723Z,81.63
2022-10-19T20:20:33.257Z,81.70
2022-10-19T20:23:01.164Z,81.58
2022-10-19T20:25:27.724Z,81.89
2022-10-19T20:27:54.295Z,82.21
2022-10-19T20:30:20.879Z,82.37
2022-10-19T20:32:47.428Z,82.35
2022-10-19T20:35:14.737Z,82.43
2022-10-19T20:37:41.317Z,82.43
2022-10-19T20:40:11.031Z,82.35
2022-10-19T20:42:37.978Z,82.57
2022-10-19T20:45:05.718Z,82.51
2022-10-19T20:47:32.284Z,82.88
2022-10-19T20:49:58.896Z,82.97
2022-10-19T20:52:25.559Z,83.02
2022-10-19T20:54:52.108Z,82.98
2022-10-19T20:57:20.012Z,83.13
2022-10-19T20:59:46.547Z,82.91
2022-10-19T21:02:13.091Z,83.03
2022-10-19T21:04:39.808Z,83.16
2022-10-19T21:07:06.432Z,83.17
2022-10-19T21:09:33.041Z,83.28
2022-10-19T21:11:59.886Z,83.70
2022-10-19T21:14:29.255Z,83.75
2022-10-19T21:16:56.588Z,83.68
2022-10-19T21:19:25.440Z,84.01
2022-10-19T21:21:53.808Z,84.03
2022-10-19T21:24:22.637Z,84.46
2022-10-19T21:26:49.249Z,84.27
2022-10-19T21:29:17.014Z,84.37
2022-10-19T21:31:48.781Z,84.08
2022-10-19T21:34:18.673Z,84.63
2022-10-19T21:36:45.546Z,84.89
2022-10-19T21:39:12.113Z,84.69
2022-10-19T21:41:38.853Z,84.54
2022-10-19T21:44:05.623Z,84.92
2022-10-19T21:46:32.188Z,84.97
2022-10-19T21:49:00.107Z,85.10
2022-10-19T21:51:33.788Z,85.15
2022-10-19T21:54:00.698Z,85.12
2022-10-19T21:56:27.547Z,85.06
2022-10-19T21:58:54.370Z,85.18
2022-10-19T22:01:24.085Z,85.00
2022-10-19T22:03:55.069Z,85.02
2022-10-19T22:06:23.573Z,84.94
2022-10-19T22:08:50.229Z,85.11
2022-10-19T22:11:16.809Z,85.13
2022-10-19T22:13:43.581Z,85.56
2022-10-19T22:16:13.391Z,85.58
2022-10-19T22:18:40.197Z,86.40
2022-10-19T22:21:09.221Z,86.65
2022-10-19T22:23:37.208Z,86.89
2022-10-19T22:26:12.302Z,87.38
2022-10-19T22:28:38.979Z,87.15
2022-10-19T22:31:05.765Z,87.30
2022-10-19T22:33:32.439Z,87.99
2022-10-19T22:36:00.644Z,88.57
2022-10-19T22:38:28.424Z,88.90
2022-10-19T22:40:56.290Z,89.05
2022-10-19T22:43:22.828Z,89.32
2022-10-19T22:45:50.201Z,89.27
2022-10-19T22:48:17.545Z,89.56
2022-10-19T22:50:44.407Z,90.59
2022-10-19T22:53:11.445Z,91.06
2022-10-19T22:55:38.741Z,90.30
2022-10-19T22:58:08.801Z,90.22
2022-10-19T23:00:36.264Z,90.23
2022-10-19T23:03:02.845Z,90.43
2022-10-19T23:05:29.603Z,90.40
2022-10-19T23:07:56.166Z,90.64
2022-10-19T23:10:23.108Z,90.75
2022-10-19T23:12:49.934Z,90.89
2022-10-19T23:15:18.672Z,91.92
2022-10-19T23:17:45.263Z,92.51
2022-10-19T23:20:12.996Z,92.16
2022-10-19T23:22:40.005Z,92.03
2022-10-19T23:25:07.725Z,92.20
2022-10-19T23:27:34.610Z,91.87
2022-10-19T23:30:02.499Z,92.06
2022-10-19T23:32:30.420Z,92.08
2022-10-19T23:34:57.203Z,91.38
2022-10-19T23:37:23.811Z,90.87
2022-10-19T23:39:50.343Z,92.46
2022-10-19T23:42:16.980Z,92.32
2022-10-19T23:44:43.543Z,92.44
2022-10-19T23:47:10.108Z,92.57
2022-10-19T23:49:38.036Z,93.31
2022-10-19T23:52:04.848Z,93.43
2022-10-19T23:54:31.416Z,92.95
2022-10-19T23:56:58.107Z,92.35
2022-10-19T23:59:24.804Z,91.96
